sensor_id;sensor_type;location;lat;lon;timestamp;P1;durP1;ratioP1;P2;durP2;ratioP2
59876;SDS011;45749;51.140;17.184;2023-05-10T00:01:21;6.47;;;3.97;;
59876;SDS011;45749;51.140;17.184;2023-05-10T00:03:46;6.40;;;4.60;;
59876;SDS011;45749;51.140;17.184;2023-05-10T00:06:11;6.20;;;3.78;;
59876;SDS011;45749;51.140;17.184;2023-05-10T00:08:37;6.97;;;4.43;;
59876;SDS011;45749;51.140;17.184;2023-05-10T00:11:02;7.05;;;4.45;;
59876;SDS011;45749;51.140;17.184;2023-05-10T00:13:27;7.10;;;4.45;;
59876;SDS011;45749;51.140;17.184;2023-05-10T00:15:53;6.88;;;4.00;;
59876;SDS011;45749;51.140;17.184;2023-05-10T00:18:18;8.98;;;4.32;;
59876;SDS011;45749;51.140;17.184;2023-05-10T00:20:43;7.60;;;5.75;;
59876;SDS011;45749;51.140;17.184;2023-05-10T00:23:11;6.15;;;3.90;;
59876;SDS011;45749;51.140;17.184;2023-05-10T00:25:37;6.15;;;4.55;;
59876;SDS011;45749;51.140;17.184;2023-05-10T00:28:02;10.00;;;4.85;;
59876;SDS011;45749;51.140;17.184;2023-05-10T00:30:27;7.40;;;4.90;;
59876;SDS011;45749;51.140;17.184;2023-05-10T00:32:53;10.20;;;4.70;;
59876;SDS011;45749;51.140;17.184;2023-05-10T00:35:18;7.55;;;4.15;;
59876;SDS011;45749;51.140;17.184;2023-05-10T00:37:44;7.47;;;4.05;;
59876;SDS011;45749;51.140;17.184;2023-05-10T00:40:09;6.13;;;4.00;;
59876;SDS011;45749;51.140;17.184;2023-05-10T00:42:35;8.15;;;4.70;;
59876;SDS011;45749;51.140;17.184;2023-05-10T00:45:00;9.23;;;5.07;;
59876;SDS011;45749;51.140;17.184;2023-05-10T00:47:26;7.68;;;4.95;;
59876;SDS011;45749;51.140;17.184;2023-05-10T00:49:52;6.68;;;4.20;;
59876;SDS011;45749;51.140;17.184;2023-05-10T00:52:17;8.27;;;5.07;;
59876;SDS011;45749;51.140;17.184;2023-05-10T00:54:43;8.60;;;4.88;;
59876;SDS011;45749;51.140;17.184;2023-05-10T00:57:08;7.00;;;3.63;;
59876;SDS011;45749;51.140;17.184;2023-05-10T00:59:34;7.57;;;4.60;;
59876;SDS011;45749;51.140;17.184;2023-05-10T01:01:59;8.50;;;5.18;;
59876;SDS011;45749;51.140;17.184;2023-05-10T01:04:25;6.93;;;3.95;;
59876;SDS011;45749;51.140;17.184;2023-05-10T01:06:51;7.38;;;4.40;;
59876;SDS011;45749;51.140;17.184;2023-05-10T01:09:17;9.43;;;4.45;;
59876;SDS011;45749;51.140;17.184;2023-05-10T01:11:43;7.53;;;3.97;;
59876;SDS011;45749;51.140;17.184;2023-05-10T01:14:09;9.98;;;6.40;;
59876;SDS011;45749;51.140;17.184;2023-05-10T01:16:38;8.05;;;4.00;;
59876;SDS011;45749;51.140;17.184;2023-05-10T01:19:06;10.15;;;4.90;;
59876;SDS011;45749;51.140;17.184;2023-05-10T01:24:19;7.35;;;4.55;;
59876;SDS011;45749;51.140;17.184;2023-05-10T01:32:25;7.38;;;4.38;;
59876;SDS011;45749;51.140;17.184;2023-05-10T01:37:46;6.47;;;4.85;;
59876;SDS011;45749;51.140;17.184;2023-05-10T01:40:19;6.90;;;4.70;;
59876;SDS011;45749;51.140;17.184;2023-05-10T01:42:51;9.25;;;5.15;;
59876;SDS011;45749;51.140;17.184;2023-05-10T01:48:12;9.55;;;4.43;;
59876;SDS011;45749;51.140;17.184;2023-05-10T01:50:41;8.40;;;4.45;;
59876;SDS011;45749;51.140;17.184;2023-05-10T01:53:09;8.38;;;4.72;;
59876;SDS011;45749;51.140;17.184;2023-05-10T01:55:40;8.82;;;4.88;;
59876;SDS011;45749;51.140;17.184;2023-05-10T01:58:12;7.55;;;4.82;;
59876;SDS011;45749;51.140;17.184;2023-05-10T02:00:42;7.32;;;4.43;;
59876;SDS011;45749;51.140;17.184;2023-05-10T02:03:08;6.47;;;4.38;;
59876;SDS011;45749;51.140;17.184;2023-05-10T02:05:36;6.05;;;3.80;;
59876;SDS011;45749;51.140;17.184;2023-05-10T02:08:02;6.97;;;4.07;;
59876;SDS011;45749;51.140;17.184;2023-05-10T02:10:32;10.82;;;4.60;;
59876;SDS011;45749;51.140;17.184;2023-05-10T02:12:59;7.30;;;4.15;;
59876;SDS011;45749;51.140;17.184;2023-05-10T02:15:25;7.30;;;4.78;;
59876;SDS011;45749;51.140;17.184;2023-05-10T02:17:52;6.15;;;4.68;;
59876;SDS011;45749;51.140;17.184;2023-05-10T02:20:20;8.77;;;4.53;;
59876;SDS011;45749;51.140;17.184;2023-05-10T02:22:47;7.47;;;4.55;;
59876;SDS011;45749;51.140;17.184;2023-05-10T02:25:16;7.43;;;5.18;;
59876;SDS011;45749;51.140;17.184;2023-05-10T02:27:44;6.78;;;4.05;;
59876;SDS011;45749;51.140;17.184;2023-05-10T02:30:10;9.52;;;4.38;;
59876;SDS011;45749;51.140;17.184;2023-05-10T02:32:36;6.22;;;4.35;;
59876;SDS011;45749;51.140;17.184;2023-05-10T02:35:03;6.57;;;4.35;;
59876;SDS011;45749;51.140;17.184;2023-05-10T02:37:30;8.02;;;4.53;;
59876;SDS011;45749;51.140;17.184;2023-05-10T02:39:57;8.20;;;4.25;;
59876;SDS011;45749;51.140;17.184;2023-05-10T02:42:23;8.20;;;4.43;;
59876;SDS011;45749;51.140;17.184;2023-05-10T02:44:55;9.00;;;5.28;;
59876;SDS011;45749;51.140;17.184;2023-05-10T02:47:26;6.23;;;4.83;;
59876;SDS011;45749;51.140;17.184;2023-05-10T02:49:52;7.20;;;4.45;;
59876;SDS011;45749;51.140;17.184;2023-05-10T02:52:19;7.32;;;4.47;;
59876;SDS011;45749;51.140;17.184;2023-05-10T02:54:49;6.90;;;4.50;;
59876;SDS011;45749;51.140;17.184;2023-05-10T02:57:17;7.68;;;5.18;;
59876;SDS011;45749;51.140;17.184;2023-05-10T02:59:52;7.10;;;4.72;;
59876;SDS011;45749;51.140;17.184;2023-05-10T03:02:18;8.10;;;5.20;;
59876;SDS011;45749;51.140;17.184;2023-05-10T03:04:43;7.40;;;4.78;;
59876;SDS011;45749;51.140;17.184;2023-05-10T03:07:09;8.13;;;5.28;;
59876;SDS011;45749;51.140;17.184;2023-05-10T03:09:35;7.55;;;4.30;;
59876;SDS011;45749;51.140;17.184;2023-05-10T03:12:02;9.02;;;5.50;;
59876;SDS011;45749;51.140;17.184;2023-05-10T03:17:25;7.97;;;5.05;;
59876;SDS011;45749;51.140;17.184;2023-05-10T03:22:23;10.35;;;5.03;;
59876;SDS011;45749;51.140;17.184;2023-05-10T03:24:52;6.80;;;4.63;;
59876;SDS011;45749;51.140;17.184;2023-05-10T03:27:20;9.02;;;4.88;;
59876;SDS011;45749;51.140;17.184;2023-05-10T03:29:47;8.02;;;5.30;;
59876;SDS011;45749;51.140;17.184;2023-05-10T03:32:13;7.90;;;4.97;;
59876;SDS011;45749;51.140;17.184;2023-05-10T03:34:41;8.35;;;6.00;;
59876;SDS011;45749;51.140;17.184;2023-05-10T03:37:08;7.10;;;5.00;;
59876;SDS011;45749;51.140;17.184;2023-05-10T03:39:33;5.35;;;4.35;;
59876;SDS011;45749;51.140;17.184;2023-05-10T03:41:59;8.27;;;4.63;;
59876;SDS011;45749;51.140;17.184;2023-05-10T03:44:24;7.85;;;4.90;;
59876;SDS011;45749;51.140;17.184;2023-05-10T03:46:49;10.70;;;5.22;;
59876;SDS011;45749;51.140;17.184;2023-05-10T03:49:14;6.85;;;4.57;;
59876;SDS011;45749;51.140;17.184;2023-05-10T03:51:40;7.15;;;4.57;;
59876;SDS011;45749;51.140;17.184;2023-05-10T03:54:05;8.93;;;4.65;;
59876;SDS011;45749;51.140;17.184;2023-05-10T03:56:30;6.80;;;5.15;;
59876;SDS011;45749;51.140;17.184;2023-05-10T03:58:56;8.52;;;4.85;;
59876;SDS011;45749;51.140;17.184;2023-05-10T04:01:21;10.80;;;4.68;;
59876;SDS011;45749;51.140;17.184;2023-05-10T04:03:46;10.40;;;4.60;;
59876;SDS011;45749;51.140;17.184;2023-05-10T04:06:11;10.65;;;5.13;;
59876;SDS011;45749;51.140;17.184;2023-05-10T04:08:37;9.88;;;5.28;;
59876;SDS011;45749;51.140;17.184;2023-05-10T04:11:06;7.40;;;4.53;;
59876;SDS011;45749;51.140;17.184;2023-05-10T04:13:32;8.07;;;6.15;;
59876;SDS011;45749;51.140;17.184;2023-05-10T04:15:58;7.85;;;5.53;;
59876;SDS011;45749;51.140;17.184;2023-05-10T04:18:23;11.27;;;5.43;;
59876;SDS011;45749;51.140;17.184;2023-05-10T04:20:49;8.55;;;4.93;;
59876;SDS011;45749;51.140;17.184;2023-05-10T04:23:14;10.15;;;4.75;;
59876;SDS011;45749;51.140;17.184;2023-05-10T04:25:41;10.60;;;5.32;;
59876;SDS011;45749;51.140;17.184;2023-05-10T04:28:06;10.15;;;5.13;;
59876;SDS011;45749;51.140;17.184;2023-05-10T04:30:32;12.50;;;5.95;;
59876;SDS011;45749;51.140;17.184;2023-05-10T04:32:57;10.70;;;5.32;;
59876;SDS011;45749;51.140;17.184;2023-05-10T04:35:23;10.48;;;5.82;;
59876;SDS011;45749;51.140;17.184;2023-05-10T04:37:48;10.80;;;5.43;;
59876;SDS011;45749;51.140;17.184;2023-05-10T04:40:13;8.82;;;5.78;;
59876;SDS011;45749;51.140;17.184;2023-05-10T04:42:42;8.55;;;4.90;;
59876;SDS011;45749;51.140;17.184;2023-05-10T04:45:08;11.10;;;5.78;;
59876;SDS011;45749;51.140;17.184;2023-05-10T04:47:34;8.68;;;4.72;;
59876;SDS011;45749;51.140;17.184;2023-05-10T04:49:59;9.98;;;6.10;;
59876;SDS011;45749;51.140;17.184;2023-05-10T04:52:25;8.05;;;5.40;;
59876;SDS011;45749;51.140;17.184;2023-05-10T04:54:50;8.35;;;5.28;;
59876;SDS011;45749;51.140;17.184;2023-05-10T04:57:16;7.43;;;4.93;;
59876;SDS011;45749;51.140;17.184;2023-05-10T04:59:41;8.40;;;4.78;;
59876;SDS011;45749;51.140;17.184;2023-05-10T05:02:07;12.07;;;5.53;;
59876;SDS011;45749;51.140;17.184;2023-05-10T05:04:32;7.05;;;4.80;;
59876;SDS011;45749;51.140;17.184;2023-05-10T05:06:58;7.45;;;5.03;;
59876;SDS011;45749;51.140;17.184;2023-05-10T05:09:23;11.75;;;5.45;;
59876;SDS011;45749;51.140;17.184;2023-05-10T05:11:48;13.32;;;5.50;;
59876;SDS011;45749;51.140;17.184;2023-05-10T05:14:14;9.85;;;4.95;;
59876;SDS011;45749;51.140;17.184;2023-05-10T05:16:39;9.05;;;4.38;;
59876;SDS011;45749;51.140;17.184;2023-05-10T05:19:04;9.48;;;4.57;;
59876;SDS011;45749;51.140;17.184;2023-05-10T05:21:30;6.32;;;4.47;;
59876;SDS011;45749;51.140;17.184;2023-05-10T05:23:57;11.13;;;3.92;;
59876;SDS011;45749;51.140;17.184;2023-05-10T05:26:22;8.38;;;4.32;;
59876;SDS011;45749;51.140;17.184;2023-05-10T05:28:47;10.38;;;4.60;;
59876;SDS011;45749;51.140;17.184;2023-05-10T05:31:13;11.40;;;5.05;;
59876;SDS011;45749;51.140;17.184;2023-05-10T05:33:39;10.93;;;5.75;;
59876;SDS011;45749;51.140;17.184;2023-05-10T05:36:04;11.65;;;4.75;;
59876;SDS011;45749;51.140;17.184;2023-05-10T05:38:30;12.90;;;4.55;;
59876;SDS011;45749;51.140;17.184;2023-05-10T05:40:56;9.60;;;4.35;;
59876;SDS011;45749;51.140;17.184;2023-05-10T05:43:21;6.88;;;4.43;;
59876;SDS011;45749;51.140;17.184;2023-05-10T05:45:46;8.13;;;3.97;;
59876;SDS011;45749;51.140;17.184;2023-05-10T05:48:12;8.30;;;4.35;;
59876;SDS011;45749;51.140;17.184;2023-05-10T05:50:37;6.13;;;3.53;;
59876;SDS011;45749;51.140;17.184;2023-05-10T05:53:02;9.85;;;4.35;;
59876;SDS011;45749;51.140;17.184;2023-05-10T05:55:28;5.65;;;3.53;;
59876;SDS011;45749;51.140;17.184;2023-05-10T05:57:54;10.30;;;4.03;;
59876;SDS011;45749;51.140;17.184;2023-05-10T06:00:19;7.78;;;3.95;;
59876;SDS011;45749;51.140;17.184;2023-05-10T06:02:46;6.82;;;3.63;;
59876;SDS011;45749;51.140;17.184;2023-05-10T06:05:11;6.85;;;4.10;;
59876;SDS011;45749;51.140;17.184;2023-05-10T06:07:36;5.93;;;3.70;;
59876;SDS011;45749;51.140;17.184;2023-05-10T06:10:02;5.45;;;3.53;;
59876;SDS011;45749;51.140;17.184;2023-05-10T06:12:27;8.63;;;3.38;;
59876;SDS011;45749;51.140;17.184;2023-05-10T06:14:53;5.75;;;3.60;;
59876;SDS011;45749;51.140;17.184;2023-05-10T06:17:18;13.55;;;4.10;;
59876;SDS011;45749;51.140;17.184;2023-05-10T06:19:43;5.15;;;2.97;;
59876;SDS011;45749;51.140;17.184;2023-05-10T06:22:09;5.63;;;3.42;;
59876;SDS011;45749;51.140;17.184;2023-05-10T06:24:34;5.35;;;3.35;;
59876;SDS011;45749;51.140;17.184;2023-05-10T06:26:59;7.40;;;3.20;;
59876;SDS011;45749;51.140;17.184;2023-05-10T06:29:25;6.55;;;3.90;;
59876;SDS011;45749;51.140;17.184;2023-05-10T06:31:51;7.40;;;3.42;;
59876;SDS011;45749;51.140;17.184;2023-05-10T06:34:16;6.82;;;4.10;;
59876;SDS011;45749;51.140;17.184;2023-05-10T06:36:41;5.43;;;3.25;;
59876;SDS011;45749;51.140;17.184;2023-05-10T06:39:07;6.70;;;3.35;;
59876;SDS011;45749;51.140;17.184;2023-05-10T06:41:32;7.20;;;3.28;;
59876;SDS011;45749;51.140;17.184;2023-05-10T06:43:57;5.68;;;3.00;;
59876;SDS011;45749;51.140;17.184;2023-05-10T06:46:23;6.53;;;3.15;;
59876;SDS011;45749;51.140;17.184;2023-05-10T06:48:48;5.82;;;2.92;;
59876;SDS011;45749;51.140;17.184;2023-05-10T06:51:13;5.93;;;3.15;;
59876;SDS011;45749;51.140;17.184;2023-05-10T06:53:38;5.45;;;2.75;;
59876;SDS011;45749;51.140;17.184;2023-05-10T06:56:04;10.27;;;3.72;;
59876;SDS011;45749;51.140;17.184;2023-05-10T06:58:29;7.30;;;3.05;;
59876;SDS011;45749;51.140;17.184;2023-05-10T07:00:54;7.63;;;2.70;;
59876;SDS011;45749;51.140;17.184;2023-05-10T07:03:27;5.75;;;3.08;;
59876;SDS011;45749;51.140;17.184;2023-05-10T07:05:52;4.97;;;2.75;;
59876;SDS011;45749;51.140;17.184;2023-05-10T07:08:17;3.95;;;2.60;;
59876;SDS011;45749;51.140;17.184;2023-05-10T07:10:43;7.38;;;3.28;;
59876;SDS011;45749;51.140;17.184;2023-05-10T07:13:08;4.78;;;2.95;;
59876;SDS011;45749;51.140;17.184;2023-05-10T07:15:34;4.90;;;3.05;;
59876;SDS011;45749;51.140;17.184;2023-05-10T07:18:00;5.82;;;2.80;;
59876;SDS011;45749;51.140;17.184;2023-05-10T07:20:25;5.78;;;2.90;;
59876;SDS011;45749;51.140;17.184;2023-05-10T07:22:50;13.27;;;3.20;;
59876;SDS011;45749;51.140;17.184;2023-05-10T07:25:15;4.63;;;2.60;;
59876;SDS011;45749;51.140;17.184;2023-05-10T07:27:41;6.53;;;2.55;;
59876;SDS011;45749;51.140;17.184;2023-05-10T07:30:06;5.07;;;2.85;;
59876;SDS011;45749;51.140;17.184;2023-05-10T07:32:32;7.88;;;3.70;;
59876;SDS011;45749;51.140;17.184;2023-05-10T07:34:57;3.53;;;2.65;;
59876;SDS011;45749;51.140;17.184;2023-05-10T07:37:23;5.72;;;3.28;;
59876;SDS011;45749;51.140;17.184;2023-05-10T07:39:48;3.90;;;2.60;;
59876;SDS011;45749;51.140;17.184;2023-05-10T07:42:13;6.38;;;3.17;;
59876;SDS011;45749;51.140;17.184;2023-05-10T07:44:39;4.13;;;3.17;;
59876;SDS011;45749;51.140;17.184;2023-05-10T07:47:04;3.85;;;2.60;;
59876;SDS011;45749;51.140;17.184;2023-05-10T07:49:29;5.10;;;3.63;;
59876;SDS011;45749;51.140;17.184;2023-05-10T07:51:54;4.70;;;2.67;;
59876;SDS011;45749;51.140;17.184;2023-05-10T07:54:20;5.47;;;2.70;;
59876;SDS011;45749;51.140;17.184;2023-05-10T07:56:45;6.70;;;3.28;;
59876;SDS011;45749;51.140;17.184;2023-05-10T07:59:21;4.80;;;2.67;;
59876;SDS011;45749;51.140;17.184;2023-05-10T08:01:46;5.57;;;2.90;;
59876;SDS011;45749;51.140;17.184;2023-05-10T08:04:11;8.15;;;3.58;;
59876;SDS011;45749;51.140;17.184;2023-05-10T08:06:37;7.53;;;2.67;;
59876;SDS011;45749;51.140;17.184;2023-05-10T08:09:02;5.90;;;3.25;;
59876;SDS011;45749;51.140;17.184;2023-05-10T08:11:27;4.03;;;2.67;;
59876;SDS011;45749;51.140;17.184;2023-05-10T08:13:53;5.07;;;3.10;;
59876;SDS011;45749;51.140;17.184;2023-05-10T08:16:19;4.13;;;2.70;;
59876;SDS011;45749;51.140;17.184;2023-05-10T08:18:45;5.97;;;3.17;;
59876;SDS011;45749;51.140;17.184;2023-05-10T08:21:11;4.20;;;2.70;;
59876;SDS011;45749;51.140;17.184;2023-05-10T08:23:37;7.57;;;3.25;;
59876;SDS011;45749;51.140;17.184;2023-05-10T08:26:02;5.07;;;2.83;;
59876;SDS011;45749;51.140;17.184;2023-05-10T08:28:28;4.90;;;2.78;;
59876;SDS011;45749;51.140;17.184;2023-05-10T08:30:53;5.00;;;3.17;;
59876;SDS011;45749;51.140;17.184;2023-05-10T08:33:18;6.05;;;2.75;;
59876;SDS011;45749;51.140;17.184;2023-05-10T08:35:44;7.25;;;3.17;;
59876;SDS011;45749;51.140;17.184;2023-05-10T08:38:09;10.75;;;2.80;;
59876;SDS011;45749;51.140;17.184;2023-05-10T08:40:36;5.13;;;2.92;;
59876;SDS011;45749;51.140;17.184;2023-05-10T08:43:04;3.55;;;2.47;;
59876;SDS011;45749;51.140;17.184;2023-05-10T08:45:32;3.25;;;2.70;;
59876;SDS011;45749;51.140;17.184;2023-05-10T08:48:01;4.38;;;2.70;;
59876;SDS011;45749;51.140;17.184;2023-05-10T08:50:29;6.65;;;2.83;;
59876;SDS011;45749;51.140;17.184;2023-05-10T08:52:57;4.30;;;3.13;;
59876;SDS011;45749;51.140;17.184;2023-05-10T08:55:24;10.10;;;3.30;;
59876;SDS011;45749;51.140;17.184;2023-05-10T08:57:50;4.63;;;2.30;;
59876;SDS011;45749;51.140;17.184;2023-05-10T09:00:16;2.78;;;2.10;;
59876;SDS011;45749;51.140;17.184;2023-05-10T09:02:43;3.95;;;2.25;;
59876;SDS011;45749;51.140;17.184;2023-05-10T09:05:09;7.88;;;2.53;;
59876;SDS011;45749;51.140;17.184;2023-05-10T09:07:35;4.45;;;1.92;;
59876;SDS011;45749;51.140;17.184;2023-05-10T09:10:01;3.90;;;2.13;;
59876;SDS011;45749;51.140;17.184;2023-05-10T09:12:27;3.58;;;2.50;;
59876;SDS011;45749;51.140;17.184;2023-05-10T09:14:52;3.72;;;2.50;;
59876;SDS011;45749;51.140;17.184;2023-05-10T09:17:19;3.70;;;2.20;;
59876;SDS011;45749;51.140;17.184;2023-05-10T09:19:46;3.83;;;1.70;;
59876;SDS011;45749;51.140;17.184;2023-05-10T09:22:11;4.40;;;1.77;;
59876;SDS011;45749;51.140;17.184;2023-05-10T09:24:37;2.80;;;1.63;;
59876;SDS011;45749;51.140;17.184;2023-05-10T09:27:07;6.20;;;1.90;;
59876;SDS011;45749;51.140;17.184;2023-05-10T09:29:41;3.72;;;1.90;;
59876;SDS011;45749;51.140;17.184;2023-05-10T09:32:07;3.45;;;1.77;;
59876;SDS011;45749;51.140;17.184;2023-05-10T09:34:32;5.70;;;2.28;;
59876;SDS011;45749;51.140;17.184;2023-05-10T09:37:00;9.98;;;3.05;;
59876;SDS011;45749;51.140;17.184;2023-05-10T09:39:34;3.42;;;1.80;;
59876;SDS011;45749;51.140;17.184;2023-05-10T09:42:04;4.38;;;2.33;;
59876;SDS011;45749;51.140;17.184;2023-05-10T09:44:31;4.63;;;2.50;;
59876;SDS011;45749;51.140;17.184;2023-05-10T09:46:57;2.97;;;2.10;;
59876;SDS011;45749;51.140;17.184;2023-05-10T09:49:23;4.15;;;1.80;;
59876;SDS011;45749;51.140;17.184;2023-05-10T09:54:27;4.70;;;1.88;;
59876;SDS011;45749;51.140;17.184;2023-05-10T09:56:53;3.47;;;1.80;;
59876;SDS011;45749;51.140;17.184;2023-05-10T09:59:18;3.05;;;2.45;;
59876;SDS011;45749;51.140;17.184;2023-05-10T10:01:49;4.65;;;2.20;;
59876;SDS011;45749;51.140;17.184;2023-05-10T10:04:24;3.25;;;2.47;;
59876;SDS011;45749;51.140;17.184;2023-05-10T10:07:01;3.22;;;2.53;;
59876;SDS011;45749;51.140;17.184;2023-05-10T10:09:28;2.47;;;1.80;;
59876;SDS011;45749;51.140;17.184;2023-05-10T10:11:53;4.63;;;2.15;;
59876;SDS011;45749;51.140;17.184;2023-05-10T10:14:19;3.47;;;2.00;;
59876;SDS011;45749;51.140;17.184;2023-05-10T10:16:46;5.80;;;2.08;;
59876;SDS011;45749;51.140;17.184;2023-05-10T10:19:12;3.05;;;2.35;;
59876;SDS011;45749;51.140;17.184;2023-05-10T10:21:37;3.15;;;2.13;;
59876;SDS011;45749;51.140;17.184;2023-05-10T10:24:03;4.55;;;2.30;;
59876;SDS011;45749;51.140;17.184;2023-05-10T10:26:30;3.65;;;1.95;;
59876;SDS011;45749;51.140;17.184;2023-05-10T10:32:09;5.78;;;2.60;;
59876;SDS011;45749;51.140;17.184;2023-05-10T10:34:38;6.53;;;2.00;;
59876;SDS011;45749;51.140;17.184;2023-05-10T10:37:05;7.90;;;2.70;;
59876;SDS011;45749;51.140;17.184;2023-05-10T10:39:31;4.40;;;2.50;;
59876;SDS011;45749;51.140;17.184;2023-05-10T10:41:57;4.47;;;1.58;;
59876;SDS011;45749;51.140;17.184;2023-05-10T10:44:24;6.25;;;2.40;;
59876;SDS011;45749;51.140;17.184;2023-05-10T10:52:13;2.53;;;1.63;;
59876;SDS011;45749;51.140;17.184;2023-05-10T10:55:07;5.22;;;2.85;;
59876;SDS011;45749;51.140;17.184;2023-05-10T11:00:26;3.85;;;2.05;;
59876;SDS011;45749;51.140;17.184;2023-05-10T11:08:06;12.25;;;2.47;;
59876;SDS011;45749;51.140;17.184;2023-05-10T11:10:40;3.20;;;2.10;;
59876;SDS011;45749;51.140;17.184;2023-05-10T11:13:14;4.15;;;1.92;;
59876;SDS011;45749;51.140;17.184;2023-05-10T11:15:39;4.65;;;2.05;;
59876;SDS011;45749;51.140;17.184;2023-05-10T11:18:16;7.22;;;2.58;;
59876;SDS011;45749;51.140;17.184;2023-05-10T11:26:08;5.20;;;2.28;;
59876;SDS011;45749;51.140;17.184;2023-05-10T11:28:34;2.88;;;1.85;;
59876;SDS011;45749;51.140;17.184;2023-05-10T11:31:05;7.70;;;2.45;;
59876;SDS011;45749;51.140;17.184;2023-05-10T11:33:31;5.82;;;1.70;;
59876;SDS011;45749;51.140;17.184;2023-05-10T11:36:10;3.10;;;1.75;;
59876;SDS011;45749;51.140;17.184;2023-05-10T11:38:45;7.30;;;1.85;;
59876;SDS011;45749;51.140;17.184;2023-05-10T11:41:11;6.47;;;2.00;;
59876;SDS011;45749;51.140;17.184;2023-05-10T11:43:40;13.98;;;2.42;;
59876;SDS011;45749;51.140;17.184;2023-05-10T11:46:07;3.65;;;1.73;;
59876;SDS011;45749;51.140;17.184;2023-05-10T11:48:34;2.42;;;1.55;;
59876;SDS011;45749;51.140;17.184;2023-05-10T11:51:00;2.40;;;1.50;;
59876;SDS011;45749;51.140;17.184;2023-05-10T11:53:27;3.97;;;1.60;;
59876;SDS011;45749;51.140;17.184;2023-05-10T11:55:52;4.03;;;1.40;;
59876;SDS011;45749;51.140;17.184;2023-05-10T11:58:18;8.70;;;2.17;;
59876;SDS011;45749;51.140;17.184;2023-05-10T12:00:44;2.00;;;1.58;;
59876;SDS011;45749;51.140;17.184;2023-05-10T12:03:10;2.30;;;1.48;;
59876;SDS011;45749;51.140;17.184;2023-05-10T12:05:36;4.63;;;2.00;;
59876;SDS011;45749;51.140;17.184;2023-05-10T12:08:12;6.15;;;1.88;;
59876;SDS011;45749;51.140;17.184;2023-05-10T12:10:38;2.88;;;1.63;;
59876;SDS011;45749;51.140;17.184;2023-05-10T12:13:03;5.13;;;1.60;;
59876;SDS011;45749;51.140;17.184;2023-05-10T12:15:28;6.90;;;1.73;;
59876;SDS011;45749;51.140;17.184;2023-05-10T12:17:54;3.73;;;1.80;;
59876;SDS011;45749;51.140;17.184;2023-05-10T12:20:20;19.38;;;4.20;;
59876;SDS011;45749;51.140;17.184;2023-05-10T12:22:56;2.38;;;1.48;;
59876;SDS011;45749;51.140;17.184;2023-05-10T12:25:24;2.60;;;1.63;;
59876;SDS011;45749;51.140;17.184;2023-05-10T12:27:56;2.73;;;1.77;;
59876;SDS011;45749;51.140;17.184;2023-05-10T12:30:23;3.85;;;1.30;;
59876;SDS011;45749;51.140;17.184;2023-05-10T12:32:50;2.67;;;1.55;;
59876;SDS011;45749;51.140;17.184;2023-05-10T12:35:15;2.75;;;1.33;;
59876;SDS011;45749;51.140;17.184;2023-05-10T12:37:44;2.05;;;1.45;;
59876;SDS011;45749;51.140;17.184;2023-05-10T12:40:09;2.85;;;1.70;;
59876;SDS011;45749;51.140;17.184;2023-05-10T12:42:36;3.58;;;1.15;;
59876;SDS011;45749;51.140;17.184;2023-05-10T12:45:04;5.00;;;1.40;;
59876;SDS011;45749;51.140;17.184;2023-05-10T12:47:30;1.67;;;1.20;;
59876;SDS011;45749;51.140;17.184;2023-05-10T12:49:56;3.42;;;1.60;;
59876;SDS011;45749;51.140;17.184;2023-05-10T12:52:22;6.15;;;1.80;;
59876;SDS011;45749;51.140;17.184;2023-05-10T12:54:47;2.88;;;1.20;;
59876;SDS011;45749;51.140;17.184;2023-05-10T12:57:13;3.88;;;1.40;;
59876;SDS011;45749;51.140;17.184;2023-05-10T12:59:38;3.13;;;1.33;;
59876;SDS011;45749;51.140;17.184;2023-05-10T13:02:04;3.92;;;1.27;;
59876;SDS011;45749;51.140;17.184;2023-05-10T13:04:30;2.47;;;1.35;;
59876;SDS011;45749;51.140;17.184;2023-05-10T13:06:55;3.38;;;1.30;;
59876;SDS011;45749;51.140;17.184;2023-05-10T13:09:23;4.53;;;1.42;;
59876;SDS011;45749;51.140;17.184;2023-05-10T13:11:49;2.53;;;1.30;;
59876;SDS011;45749;51.140;17.184;2023-05-10T13:14:15;4.45;;;1.17;;
59876;SDS011;45749;51.140;17.184;2023-05-10T13:16:40;2.65;;;1.75;;
59876;SDS011;45749;51.140;17.184;2023-05-10T13:19:05;2.25;;;1.15;;
59876;SDS011;45749;51.140;17.184;2023-05-10T13:21:31;6.00;;;1.63;;
59876;SDS011;45749;51.140;17.184;2023-05-10T13:23:56;2.10;;;1.40;;
59876;SDS011;45749;51.140;17.184;2023-05-10T13:26:21;2.88;;;1.40;;
59876;SDS011;45749;51.140;17.184;2023-05-10T13:28:47;3.00;;;1.00;;
59876;SDS011;45749;51.140;17.184;2023-05-10T13:31:13;1.27;;;1.02;;
59876;SDS011;45749;51.140;17.184;2023-05-10T13:33:38;3.55;;;1.30;;
59876;SDS011;45749;51.140;17.184;2023-05-10T13:36:04;4.70;;;1.48;;
59876;SDS011;45749;51.140;17.184;2023-05-10T13:38:31;4.07;;;1.40;;
59876;SDS011;45749;51.140;17.184;2023-05-10T13:40:56;3.70;;;1.30;;
59876;SDS011;45749;51.140;17.184;2023-05-10T13:43:21;4.28;;;1.10;;
59876;SDS011;45749;51.140;17.184;2023-05-10T13:45:47;4.15;;;2.08;;
59876;SDS011;45749;51.140;17.184;2023-05-10T13:48:12;3.37;;;1.30;;
59876;SDS011;45749;51.140;17.184;2023-05-10T13:50:37;2.85;;;1.25;;
59876;SDS011;45749;51.140;17.184;2023-05-10T13:53:03;2.53;;;1.25;;
59876;SDS011;45749;51.140;17.184;2023-05-10T13:55:28;5.57;;;1.50;;
59876;SDS011;45749;51.140;17.184;2023-05-10T13:57:54;4.87;;;2.03;;
59876;SDS011;45749;51.140;17.184;2023-05-10T14:00:19;4.55;;;1.65;;
59876;SDS011;45749;51.140;17.184;2023-05-10T14:02:44;3.72;;;1.73;;
59876;SDS011;45749;51.140;17.184;2023-05-10T14:05:10;4.20;;;1.87;;
59876;SDS011;45749;51.140;17.184;2023-05-10T14:07:35;2.88;;;1.20;;
59876;SDS011;45749;51.140;17.184;2023-05-10T14:10:00;3.27;;;1.50;;
59876;SDS011;45749;51.140;17.184;2023-05-10T14:12:26;3.15;;;1.92;;
59876;SDS011;45749;51.140;17.184;2023-05-10T14:14:52;6.32;;;1.73;;
59876;SDS011;45749;51.140;17.184;2023-05-10T14:17:17;3.22;;;1.20;;
59876;SDS011;45749;51.140;17.184;2023-05-10T14:19:43;1.30;;;0.90;;
59876;SDS011;45749;51.140;17.184;2023-05-10T14:22:08;1.80;;;0.65;;
59876;SDS011;45749;51.140;17.184;2023-05-10T14:24:34;3.05;;;1.73;;
59876;SDS011;45749;51.140;17.184;2023-05-10T14:26:59;3.20;;;1.03;;
59876;SDS011;45749;51.140;17.184;2023-05-10T14:29:25;1.45;;;1.00;;
59876;SDS011;45749;51.140;17.184;2023-05-10T14:31:50;2.50;;;1.00;;
59876;SDS011;45749;51.140;17.184;2023-05-10T14:34:15;2.15;;;1.15;;
59876;SDS011;45749;51.140;17.184;2023-05-10T14:36:41;1.08;;;0.80;;
59876;SDS011;45749;51.140;17.184;2023-05-10T14:39:06;1.70;;;1.20;;
59876;SDS011;45749;51.140;17.184;2023-05-10T14:41:31;2.70;;;1.10;;
59876;SDS011;45749;51.140;17.184;2023-05-10T14:43:57;3.67;;;1.20;;
59876;SDS011;45749;51.140;17.184;2023-05-10T14:46:23;3.75;;;1.10;;
59876;SDS011;45749;51.140;17.184;2023-05-10T14:48:48;2.30;;;0.87;;
59876;SDS011;45749;51.140;17.184;2023-05-10T14:51:13;7.70;;;1.83;;
59876;SDS011;45749;51.140;17.184;2023-05-10T14:53:39;6.68;;;1.25;;
59876;SDS011;45749;51.140;17.184;2023-05-10T14:56:04;4.75;;;1.65;;
59876;SDS011;45749;51.140;17.184;2023-05-10T14:58:30;8.68;;;3.03;;
59876;SDS011;45749;51.140;17.184;2023-05-10T15:00:55;8.88;;;2.25;;
59876;SDS011;45749;51.140;17.184;2023-05-10T15:03:21;7.65;;;1.83;;
59876;SDS011;45749;51.140;17.184;2023-05-10T15:05:47;3.05;;;1.10;;
59876;SDS011;45749;51.140;17.184;2023-05-10T15:08:12;1.95;;;1.00;;
59876;SDS011;45749;51.140;17.184;2023-05-10T15:10:38;4.00;;;1.20;;
59876;SDS011;45749;51.140;17.184;2023-05-10T15:13:03;3.58;;;1.30;;